sensor_id;sensor_type;location;lat;lon;timestamp;P1;durP1;ratioP1;P2;durP2;ratioP2
3975;SDS011;2002;48.812;9.180;2022-07-05T00:00:32;2.80;;;2.57;;
3975;SDS011;2002;48.812;9.180;2022-07-05T00:02:57;2.87;;;2.63;;
3975;SDS011;2002;48.812;9.180;2022-07-05T00:05:23;2.70;;;2.50;;
3975;SDS011;2002;48.812;9.180;2022-07-05T00:07:48;3.93;;;3.53;;
3975;SDS011;2002;48.812;9.180;2022-07-05T00:10:14;2.83;;;2.63;;
3975;SDS011;2002;48.812;9.180;2022-07-05T00:12:39;2.90;;;2.70;;
3975;SDS011;2002;48.812;9.180;2022-07-05T00:15:05;3.40;;;2.50;;
3975;SDS011;2002;48.812;9.180;2022-07-05T00:17:31;2.90;;;2.70;;
3975;SDS011;2002;48.812;9.180;2022-07-05T00:19:56;3.37;;;3.07;;
3975;SDS011;2002;48.812;9.180;2022-07-05T00:22:22;3.53;;;3.23;;
3975;SDS011;2002;48.812;9.180;2022-07-05T00:24:47;3.80;;;2.60;;
3975;SDS011;2002;48.812;9.180;2022-07-05T00:27:13;2.60;;;2.40;;
3975;SDS011;2002;48.812;9.180;2022-07-05T00:29:39;3.20;;;2.67;;
3975;SDS011;2002;48.812;9.180;2022-07-05T00:32:04;3.13;;;2.87;;
3975;SDS011;2002;48.812;9.180;2022-07-05T00:34:30;3.47;;;3.17;;
3975;SDS011;2002;48.812;9.180;2022-07-05T00:36:56;3.03;;;2.83;;
3975;SDS011;2002;48.812;9.180;2022-07-05T00:39:21;3.30;;;3.00;;
3975;SDS011;2002;48.812;9.180;2022-07-05T00:41:47;3.13;;;2.60;;
3975;SDS011;2002;48.812;9.180;2022-07-05T00:44:12;3.60;;;3.30;;
3975;SDS011;2002;48.812;9.180;2022-07-05T00:46:42;3.40;;;3.20;;
3975;SDS011;2002;48.812;9.180;2022-07-05T00:49:08;3.67;;;2.60;;
3975;SDS011;2002;48.812;9.180;2022-07-05T00:51:35;3.40;;;2.80;;
3975;SDS011;2002;48.812;9.180;2022-07-05T00:54:02;3.23;;;3.03;;
3975;SDS011;2002;48.812;9.180;2022-07-05T00:56:31;3.50;;;3.00;;
3975;SDS011;2002;48.812;9.180;2022-07-05T00:58:57;3.40;;;3.10;;
3975;SDS011;2002;48.812;9.180;2022-07-05T01:01:22;2.80;;;2.60;;
3975;SDS011;2002;48.812;9.180;2022-07-05T01:03:50;3.00;;;2.70;;
3975;SDS011;2002;48.812;9.180;2022-07-05T01:06:16;4.20;;;2.90;;
3975;SDS011;2002;48.812;9.180;2022-07-05T01:08:42;3.07;;;2.77;;
3975;SDS011;2002;48.812;9.180;2022-07-05T01:11:11;3.83;;;3.53;;
3975;SDS011;2002;48.812;9.180;2022-07-05T01:13:38;3.13;;;2.63;;
3975;SDS011;2002;48.812;9.180;2022-07-05T01:16:04;3.73;;;2.40;;
3975;SDS011;2002;48.812;9.180;2022-07-05T01:18:30;2.80;;;2.40;;
3975;SDS011;2002;48.812;9.180;2022-07-05T01:20:57;3.10;;;2.80;;
3975;SDS011;2002;48.812;9.180;2022-07-05T01:23:23;4.27;;;2.33;;
3975;SDS011;2002;48.812;9.180;2022-07-05T01:25:52;3.50;;;3.20;;
3975;SDS011;2002;48.812;9.180;2022-07-05T01:28:19;3.50;;;3.30;;
3975;SDS011;2002;48.812;9.180;2022-07-05T01:30:45;3.17;;;2.87;;
3975;SDS011;2002;48.812;9.180;2022-07-05T01:33:12;3.07;;;2.87;;
3975;SDS011;2002;48.812;9.180;2022-07-05T01:35:38;3.30;;;3.10;;
3975;SDS011;2002;48.812;9.180;2022-07-05T01:38:04;3.20;;;2.83;;
3975;SDS011;2002;48.812;9.180;2022-07-05T01:40:30;2.80;;;2.33;;
3975;SDS011;2002;48.812;9.180;2022-07-05T01:42:56;3.00;;;2.80;;
3975;SDS011;2002;48.812;9.180;2022-07-05T01:45:22;4.70;;;2.70;;
3975;SDS011;2002;48.812;9.180;2022-07-05T01:48:08;2.73;;;2.63;;
3975;SDS011;2002;48.812;9.180;2022-07-05T01:50:37;2.90;;;2.33;;
3975;SDS011;2002;48.812;9.180;2022-07-05T01:53:06;2.83;;;2.50;;
3975;SDS011;2002;48.812;9.180;2022-07-05T01:55:39;2.87;;;2.57;;
3975;SDS011;2002;48.812;9.180;2022-07-05T01:58:04;2.40;;;2.30;;
3975;SDS011;2002;48.812;9.180;2022-07-05T02:00:40;2.40;;;2.20;;
3975;SDS011;2002;48.812;9.180;2022-07-05T02:03:10;3.10;;;2.90;;
3975;SDS011;2002;48.812;9.180;2022-07-05T02:05:36;2.50;;;2.30;;
3975;SDS011;2002;48.812;9.180;2022-07-05T02:08:02;3.33;;;2.60;;
3975;SDS011;2002;48.812;9.180;2022-07-05T02:10:27;2.33;;;2.23;;
3975;SDS011;2002;48.812;9.180;2022-07-05T02:12:53;3.10;;;2.90;;
3975;SDS011;2002;48.812;9.180;2022-07-05T02:15:18;2.60;;;2.40;;
3975;SDS011;2002;48.812;9.180;2022-07-05T02:17:44;2.30;;;2.20;;
3975;SDS011;2002;48.812;9.180;2022-07-05T02:20:09;3.10;;;2.60;;
3975;SDS011;2002;48.812;9.180;2022-07-05T02:22:35;2.57;;;2.47;;
3975;SDS011;2002;48.812;9.180;2022-07-05T02:25:01;2.80;;;2.60;;
3975;SDS011;2002;48.812;9.180;2022-07-05T02:27:27;4.63;;;2.90;;
3975;SDS011;2002;48.812;9.180;2022-07-05T02:29:52;2.73;;;2.53;;
3975;SDS011;2002;48.812;9.180;2022-07-05T02:32:18;2.70;;;2.50;;
3975;SDS011;2002;48.812;9.180;2022-07-05T02:34:43;6.47;;;3.30;;
3975;SDS011;2002;48.812;9.180;2022-07-05T02:37:09;3.67;;;2.43;;
3975;SDS011;2002;48.812;9.180;2022-07-05T02:39:34;2.40;;;2.20;;
3975;SDS011;2002;48.812;9.180;2022-07-05T02:42:00;2.80;;;2.60;;
3975;SDS011;2002;48.812;9.180;2022-07-05T02:44:25;3.50;;;2.43;;
3975;SDS011;2002;48.812;9.180;2022-07-05T02:46:51;3.17;;;2.70;;
3975;SDS011;2002;48.812;9.180;2022-07-05T02:49:16;3.10;;;2.60;;
3975;SDS011;2002;48.812;9.180;2022-07-05T02:51:42;2.27;;;2.17;;
3975;SDS011;2002;48.812;9.180;2022-07-05T02:54:08;3.03;;;2.83;;
3975;SDS011;2002;48.812;9.180;2022-07-05T02:56:33;3.53;;;2.93;;
3975;SDS011;2002;48.812;9.180;2022-07-05T02:58:59;2.43;;;2.23;;
3975;SDS011;2002;48.812;9.180;2022-07-05T03:01:24;3.27;;;3.03;;
3975;SDS011;2002;48.812;9.180;2022-07-05T03:03:50;2.67;;;2.47;;
3975;SDS011;2002;48.812;9.180;2022-07-05T03:06:15;3.33;;;3.07;;
3975;SDS011;2002;48.812;9.180;2022-07-05T03:08:41;2.63;;;2.37;;
3975;SDS011;2002;48.812;9.180;2022-07-05T03:11:07;3.17;;;2.87;;
3975;SDS011;2002;48.812;9.180;2022-07-05T03:13:32;2.60;;;2.40;;
3975;SDS011;2002;48.812;9.180;2022-07-05T03:15:58;2.63;;;2.43;;
3975;SDS011;2002;48.812;9.180;2022-07-05T03:18:23;3.23;;;2.90;;
3975;SDS011;2002;48.812;9.180;2022-07-05T03:20:49;3.63;;;2.30;;
3975;SDS011;2002;48.812;9.180;2022-07-05T03:23:14;3.87;;;2.70;;
3975;SDS011;2002;48.812;9.180;2022-07-05T03:25:40;2.73;;;2.53;;
3975;SDS011;2002;48.812;9.180;2022-07-05T03:28:05;2.50;;;2.33;;
3975;SDS011;2002;48.812;9.180;2022-07-05T03:30:31;3.20;;;2.90;;
3975;SDS011;2002;48.812;9.180;2022-07-05T03:32:57;2.90;;;2.60;;
3975;SDS011;2002;48.812;9.180;2022-07-05T03:35:22;2.63;;;2.43;;
3975;SDS011;2002;48.812;9.180;2022-07-05T03:37:48;2.97;;;2.77;;
3975;SDS011;2002;48.812;9.180;2022-07-05T03:40:13;5.27;;;3.00;;
3975;SDS011;2002;48.812;9.180;2022-07-05T03:42:39;2.73;;;2.53;;
3975;SDS011;2002;48.812;9.180;2022-07-05T03:45:04;2.80;;;2.60;;
3975;SDS011;2002;48.812;9.180;2022-07-05T03:47:30;3.20;;;2.30;;
3975;SDS011;2002;48.812;9.180;2022-07-05T03:49:56;3.40;;;2.77;;
3975;SDS011;2002;48.812;9.180;2022-07-05T03:52:22;3.00;;;2.77;;
3975;SDS011;2002;48.812;9.180;2022-07-05T03:54:47;2.60;;;2.40;;
3975;SDS011;2002;48.812;9.180;2022-07-05T03:57:13;2.70;;;2.50;;
3975;SDS011;2002;48.812;9.180;2022-07-05T03:59:38;3.23;;;2.53;;
3975;SDS011;2002;48.812;9.180;2022-07-05T04:02:04;2.80;;;2.60;;
3975;SDS011;2002;48.812;9.180;2022-07-05T04:04:30;3.43;;;2.63;;
3975;SDS011;2002;48.812;9.180;2022-07-05T04:06:55;2.73;;;2.53;;
3975;SDS011;2002;48.812;9.180;2022-07-05T04:09:21;3.17;;;2.60;;
3975;SDS011;2002;48.812;9.180;2022-07-05T04:11:46;2.50;;;2.40;;
3975;SDS011;2002;48.812;9.180;2022-07-05T04:14:12;4.83;;;2.90;;
3975;SDS011;2002;48.812;9.180;2022-07-05T04:16:38;2.37;;;2.20;;
3975;SDS011;2002;48.812;9.180;2022-07-05T04:19:03;2.87;;;2.20;;
3975;SDS011;2002;48.812;9.180;2022-07-05T04:21:29;2.63;;;2.50;;
3975;SDS011;2002;48.812;9.180;2022-07-05T04:23:55;2.40;;;1.80;;
3975;SDS011;2002;48.812;9.180;2022-07-05T04:26:20;2.57;;;2.37;;
3975;SDS011;2002;48.812;9.180;2022-07-05T04:28:46;3.17;;;2.97;;
3975;SDS011;2002;48.812;9.180;2022-07-05T04:31:11;3.43;;;2.97;;
3975;SDS011;2002;48.812;9.180;2022-07-05T04:33:37;3.00;;;2.70;;
3975;SDS011;2002;48.812;9.180;2022-07-05T04:36:02;3.57;;;2.80;;
3975;SDS011;2002;48.812;9.180;2022-07-05T04:38:28;2.50;;;2.40;;
3975;SDS011;2002;48.812;9.180;2022-07-05T04:40:54;2.97;;;2.67;;
3975;SDS011;2002;48.812;9.180;2022-07-05T04:43:20;3.57;;;3.30;;
3975;SDS011;2002;48.812;9.180;2022-07-05T04:45:45;2.63;;;2.47;;
3975;SDS011;2002;48.812;9.180;2022-07-05T04:48:12;2.67;;;2.50;;
3975;SDS011;2002;48.812;9.180;2022-07-05T04:50:37;2.90;;;2.67;;
3975;SDS011;2002;48.812;9.180;2022-07-05T04:53:03;3.27;;;2.90;;
3975;SDS011;2002;48.812;9.180;2022-07-05T04:55:28;3.50;;;2.83;;
3975;SDS011;2002;48.812;9.180;2022-07-05T04:57:54;3.00;;;2.80;;
3975;SDS011;2002;48.812;9.180;2022-07-05T05:00:20;2.80;;;2.60;;
3975;SDS011;2002;48.812;9.180;2022-07-05T05:02:45;3.93;;;3.10;;
3975;SDS011;2002;48.812;9.180;2022-07-05T05:05:11;3.70;;;3.40;;
3975;SDS011;2002;48.812;9.180;2022-07-05T05:07:37;3.53;;;3.23;;
3975;SDS011;2002;48.812;9.180;2022-07-05T05:10:07;4.50;;;3.70;;
3975;SDS011;2002;48.812;9.180;2022-07-05T05:12:33;3.60;;;3.17;;
3975;SDS011;2002;48.812;9.180;2022-07-05T05:14:58;3.27;;;2.70;;
3975;SDS011;2002;48.812;9.180;2022-07-05T05:17:24;4.33;;;3.77;;
3975;SDS011;2002;48.812;9.180;2022-07-05T05:19:49;3.97;;;3.30;;
3975;SDS011;2002;48.812;9.180;2022-07-05T05:22:15;4.13;;;3.50;;
3975;SDS011;2002;48.812;9.180;2022-07-05T05:24:40;4.83;;;4.30;;
3975;SDS011;2002;48.812;9.180;2022-07-05T05:27:06;3.47;;;3.17;;
3975;SDS011;2002;48.812;9.180;2022-07-05T05:29:31;3.80;;;3.50;;
3975;SDS011;2002;48.812;9.180;2022-07-05T05:31:57;3.80;;;3.50;;
3975;SDS011;2002;48.812;9.180;2022-07-05T05:34:24;3.70;;;3.40;;
3975;SDS011;2002;48.812;9.180;2022-07-05T05:36:49;5.30;;;4.23;;
3975;SDS011;2002;48.812;9.180;2022-07-05T05:39:15;4.00;;;3.30;;
3975;SDS011;2002;48.812;9.180;2022-07-05T05:41:40;5.20;;;3.70;;
3975;SDS011;2002;48.812;9.180;2022-07-05T05:44:06;4.17;;;3.77;;
3975;SDS011;2002;48.812;9.180;2022-07-05T05:46:32;7.40;;;4.00;;
3975;SDS011;2002;48.812;9.180;2022-07-05T05:48:58;4.57;;;4.17;;
3975;SDS011;2002;48.812;9.180;2022-07-05T05:51:23;3.33;;;3.13;;
3975;SDS011;2002;48.812;9.180;2022-07-05T05:53:49;3.77;;;3.47;;
3975;SDS011;2002;48.812;9.180;2022-07-05T05:56:15;3.00;;;2.80;;
3975;SDS011;2002;48.812;9.180;2022-07-05T05:58:41;3.00;;;2.80;;
3975;SDS011;2002;48.812;9.180;2022-07-05T06:01:06;2.47;;;2.27;;
3975;SDS011;2002;48.812;9.180;2022-07-05T06:03:32;2.90;;;2.60;;
3975;SDS011;2002;48.812;9.180;2022-07-05T06:05:57;2.90;;;2.50;;
3975;SDS011;2002;48.812;9.180;2022-07-05T06:08:23;2.17;;;2.00;;
3975;SDS011;2002;48.812;9.180;2022-07-05T06:10:49;2.47;;;2.27;;
3975;SDS011;2002;48.812;9.180;2022-07-05T06:13:14;2.30;;;2.10;;
3975;SDS011;2002;48.812;9.180;2022-07-05T06:15:42;2.30;;;2.10;;
3975;SDS011;2002;48.812;9.180;2022-07-05T06:18:08;2.73;;;2.53;;
3975;SDS011;2002;48.812;9.180;2022-07-05T06:20:35;2.00;;;1.80;;
3975;SDS011;2002;48.812;9.180;2022-07-05T06:23:02;2.67;;;2.47;;
3975;SDS011;2002;48.812;9.180;2022-07-05T06:25:30;2.53;;;2.33;;
3975;SDS011;2002;48.812;9.180;2022-07-05T06:27:57;2.90;;;2.57;;
3975;SDS011;2002;48.812;9.180;2022-07-05T06:30:27;3.20;;;2.30;;
3975;SDS011;2002;48.812;9.180;2022-07-05T06:32:54;2.60;;;2.10;;
3975;SDS011;2002;48.812;9.180;2022-07-05T06:35:20;2.77;;;2.40;;
3975;SDS011;2002;48.812;9.180;2022-07-05T06:37:48;4.10;;;2.27;;
3975;SDS011;2002;48.812;9.180;2022-07-05T06:40:17;2.47;;;2.10;;
3975;SDS011;2002;48.812;9.180;2022-07-05T06:42:44;2.30;;;2.10;;
3975;SDS011;2002;48.812;9.180;2022-07-05T06:45:10;1.97;;;1.80;;
3975;SDS011;2002;48.812;9.180;2022-07-05T06:47:36;4.13;;;1.83;;
3975;SDS011;2002;48.812;9.180;2022-07-05T06:50:02;2.20;;;2.03;;
3975;SDS011;2002;48.812;9.180;2022-07-05T06:52:29;2.27;;;2.17;;
3975;SDS011;2002;48.812;9.180;2022-07-05T06:54:56;2.80;;;2.40;;
3975;SDS011;2002;48.812;9.180;2022-07-05T06:57:23;2.10;;;1.90;;
3975;SDS011;2002;48.812;9.180;2022-07-05T06:59:49;2.30;;;1.70;;
3975;SDS011;2002;48.812;9.180;2022-07-05T07:02:15;2.20;;;2.00;;
3975;SDS011;2002;48.812;9.180;2022-07-05T07:04:41;2.00;;;1.80;;
3975;SDS011;2002;48.812;9.180;2022-07-05T07:07:07;1.70;;;1.60;;
3975;SDS011;2002;48.812;9.180;2022-07-05T07:09:51;2.00;;;1.60;;
3975;SDS011;2002;48.812;9.180;2022-07-05T07:12:16;1.93;;;1.83;;
3975;SDS011;2002;48.812;9.180;2022-07-05T07:14:42;1.70;;;1.60;;
3975;SDS011;2002;48.812;9.180;2022-07-05T07:17:07;1.80;;;1.70;;
3975;SDS011;2002;48.812;9.180;2022-07-05T07:19:33;2.13;;;1.93;;
3975;SDS011;2002;48.812;9.180;2022-07-05T07:21:59;1.80;;;1.70;;
3975;SDS011;2002;48.812;9.180;2022-07-05T07:24:24;2.30;;;2.10;;
3975;SDS011;2002;48.812;9.180;2022-07-05T07:26:50;2.30;;;2.07;;
3975;SDS011;2002;48.812;9.180;2022-07-05T07:29:27;1.90;;;1.60;;
3975;SDS011;2002;48.812;9.180;2022-07-05T07:31:53;2.40;;;1.83;;
3975;SDS011;2002;48.812;9.180;2022-07-05T07:34:19;2.50;;;2.03;;
3975;SDS011;2002;48.812;9.180;2022-07-05T07:36:45;4.87;;;2.20;;
3975;SDS011;2002;48.812;9.180;2022-07-05T07:39:10;2.63;;;2.07;;
3975;SDS011;2002;48.812;9.180;2022-07-05T07:41:36;2.10;;;2.00;;
3975;SDS011;2002;48.812;9.180;2022-07-05T07:44:01;2.07;;;1.97;;
3975;SDS011;2002;48.812;9.180;2022-07-05T07:46:27;2.40;;;2.20;;
3975;SDS011;2002;48.812;9.180;2022-07-05T07:48:53;3.03;;;1.83;;
3975;SDS011;2002;48.812;9.180;2022-07-05T07:51:18;2.70;;;2.13;;
3975;SDS011;2002;48.812;9.180;2022-07-05T07:53:46;2.60;;;2.03;;
3975;SDS011;2002;48.812;9.180;2022-07-05T07:56:12;2.50;;;2.30;;
3975;SDS011;2002;48.812;9.180;2022-07-05T07:58:37;2.50;;;1.50;;
3975;SDS011;2002;48.812;9.180;2022-07-05T08:01:03;3.60;;;2.30;;
3975;SDS011;2002;48.812;9.180;2022-07-05T08:03:30;2.70;;;1.87;;
3975;SDS011;2002;48.812;9.180;2022-07-05T08:05:57;1.97;;;1.77;;
3975;SDS011;2002;48.812;9.180;2022-07-05T08:08:22;3.13;;;1.90;;
3975;SDS011;2002;48.812;9.180;2022-07-05T08:10:48;2.57;;;2.40;;
3975;SDS011;2002;48.812;9.180;2022-07-05T08:13:13;2.47;;;2.27;;
3975;SDS011;2002;48.812;9.180;2022-07-05T08:15:39;2.20;;;2.00;;
3975;SDS011;2002;48.812;9.180;2022-07-05T08:18:04;2.80;;;2.50;;
3975;SDS011;2002;48.812;9.180;2022-07-05T08:20:48;2.50;;;2.00;;
3975;SDS011;2002;48.812;9.180;2022-07-05T08:23:32;2.57;;;2.03;;
3975;SDS011;2002;48.812;9.180;2022-07-05T08:25:58;1.97;;;1.80;;
3975;SDS011;2002;48.812;9.180;2022-07-05T08:28:23;2.53;;;2.10;;
3975;SDS011;2002;48.812;9.180;2022-07-05T08:30:51;2.07;;;1.97;;
3975;SDS011;2002;48.812;9.180;2022-07-05T08:33:16;2.83;;;2.33;;
3975;SDS011;2002;48.812;9.180;2022-07-05T08:35:42;3.70;;;1.90;;
3975;SDS011;2002;48.812;9.180;2022-07-05T08:38:07;2.33;;;2.13;;
3975;SDS011;2002;48.812;9.180;2022-07-05T08:40:33;3.23;;;2.93;;
3975;SDS011;2002;48.812;9.180;2022-07-05T08:43:04;2.30;;;2.10;;
3975;SDS011;2002;48.812;9.180;2022-07-05T08:45:32;2.27;;;2.07;;
3975;SDS011;2002;48.812;9.180;2022-07-05T08:47:58;2.03;;;1.83;;
3975;SDS011;2002;48.812;9.180;2022-07-05T08:50:26;4.83;;;2.33;;
3975;SDS011;2002;48.812;9.180;2022-07-05T08:52:52;3.10;;;2.53;;
3975;SDS011;2002;48.812;9.180;2022-07-05T08:55:18;2.70;;;2.50;;
3975;SDS011;2002;48.812;9.180;2022-07-05T08:57:43;2.00;;;1.80;;
3975;SDS011;2002;48.812;9.180;2022-07-05T09:00:10;2.40;;;2.20;;
3975;SDS011;2002;48.812;9.180;2022-07-05T09:02:36;2.43;;;2.23;;
3975;SDS011;2002;48.812;9.180;2022-07-05T09:05:01;2.67;;;2.27;;
3975;SDS011;2002;48.812;9.180;2022-07-05T09:07:27;1.97;;;1.87;;
3975;SDS011;2002;48.812;9.180;2022-07-05T09:09:56;2.13;;;2.00;;
3975;SDS011;2002;48.812;9.180;2022-07-05T09:12:26;3.40;;;2.03;;
3975;SDS011;2002;48.812;9.180;2022-07-05T09:14:55;2.20;;;2.00;;
3975;SDS011;2002;48.812;9.180;2022-07-05T09:17:22;1.77;;;1.67;;
3975;SDS011;2002;48.812;9.180;2022-07-05T09:19:52;1.80;;;1.70;;
3975;SDS011;2002;48.812;9.180;2022-07-05T09:25:12;1.93;;;1.83;;
3975;SDS011;2002;48.812;9.180;2022-07-05T09:27:52;2.67;;;2.47;;
3975;SDS011;2002;48.812;9.180;2022-07-05T09:30:30;2.23;;;2.03;;
3975;SDS011;2002;48.812;9.180;2022-07-05T09:33:02;1.80;;;1.70;;
3975;SDS011;2002;48.812;9.180;2022-07-05T09:35:38;2.37;;;2.17;;
3975;SDS011;2002;48.812;9.180;2022-07-05T09:38:05;3.40;;;2.10;;
3975;SDS011;2002;48.812;9.180;2022-07-05T09:40:32;2.07;;;1.97;;
3975;SDS011;2002;48.812;9.180;2022-07-05T09:43:10;2.30;;;2.10;;
3975;SDS011;2002;48.812;9.180;2022-07-05T09:45:37;3.80;;;2.20;;
3975;SDS011;2002;48.812;9.180;2022-07-05T09:48:03;1.93;;;1.70;;
3975;SDS011;2002;48.812;9.180;2022-07-05T09:50:35;2.20;;;2.10;;
3975;SDS011;2002;48.812;9.180;2022-07-05T09:53:01;2.70;;;1.80;;
3975;SDS011;2002;48.812;9.180;2022-07-05T09:55:27;2.97;;;2.00;;
3975;SDS011;2002;48.812;9.180;2022-07-05T09:57:52;1.70;;;1.60;;
3975;SDS011;2002;48.812;9.180;2022-07-05T10:00:22;2.47;;;1.90;;
3975;SDS011;2002;48.812;9.180;2022-07-05T10:02:52;3.20;;;2.07;;
3975;SDS011;2002;48.812;9.180;2022-07-05T10:05:28;1.73;;;1.53;;
3975;SDS011;2002;48.812;9.180;2022-07-05T10:07:56;3.23;;;1.70;;
3975;SDS011;2002;48.812;9.180;2022-07-05T10:10:24;2.20;;;2.00;;
3975;SDS011;2002;48.812;9.180;2022-07-05T10:12:53;2.13;;;2.00;;
3975;SDS011;2002;48.812;9.180;2022-07-05T10:15:20;2.30;;;1.90;;
3975;SDS011;2002;48.812;9.180;2022-07-05T10:17:58;2.27;;;1.73;;
3975;SDS011;2002;48.812;9.180;2022-07-05T10:23:06;1.93;;;1.73;;
3975;SDS011;2002;48.812;9.180;2022-07-05T10:25:34;2.17;;;1.97;;
3975;SDS011;2002;48.812;9.180;2022-07-05T10:28:02;2.10;;;1.90;;
3975;SDS011;2002;48.812;9.180;2022-07-05T10:30:29;1.87;;;1.77;;
3975;SDS011;2002;48.812;9.180;2022-07-05T10:32:56;1.80;;;1.70;;
3975;SDS011;2002;48.812;9.180;2022-07-05T10:35:22;1.67;;;1.57;;
3975;SDS011;2002;48.812;9.180;2022-07-05T10:37:48;2.07;;;1.97;;
3975;SDS011;2002;48.812;9.180;2022-07-05T10:40:14;4.13;;;1.80;;
3975;SDS011;2002;48.812;9.180;2022-07-05T10:45:28;1.60;;;1.50;;
3975;SDS011;2002;48.812;9.180;2022-07-05T10:50:48;1.90;;;1.80;;
3975;SDS011;2002;48.812;9.180;2022-07-05T10:53:16;2.43;;;1.90;;
3975;SDS011;2002;48.812;9.180;2022-07-05T10:55:55;1.73;;;1.57;;
3975;SDS011;2002;48.812;9.180;2022-07-05T11:00:47;2.03;;;1.93;;
3975;SDS011;2002;48.812;9.180;2022-07-05T11:06:02;1.90;;;1.70;;
3975;SDS011;2002;48.812;9.180;2022-07-05T11:08:29;2.00;;;1.50;;
3975;SDS011;2002;48.812;9.180;2022-07-05T11:11:13;2.37;;;2.00;;
3975;SDS011;2002;48.812;9.180;2022-07-05T11:13:42;2.23;;;1.80;;
3975;SDS011;2002;48.812;9.180;2022-07-05T11:18:50;1.77;;;1.67;;
3975;SDS011;2002;48.812;9.180;2022-07-05T11:21:21;2.10;;;1.70;;
3975;SDS011;2002;48.812;9.180;2022-07-05T11:23:47;1.40;;;1.33;;
3975;SDS011;2002;48.812;9.180;2022-07-05T11:26:16;2.90;;;2.10;;
3975;SDS011;2002;48.812;9.180;2022-07-05T11:28:45;2.00;;;1.43;;
3975;SDS011;2002;48.812;9.180;2022-07-05T11:31:12;2.40;;;1.87;;
3975;SDS011;2002;48.812;9.180;2022-07-05T11:34:00;1.37;;;1.27;;
3975;SDS011;2002;48.812;9.180;2022-07-05T11:36:38;2.67;;;2.07;;
3975;SDS011;2002;48.812;9.180;2022-07-05T11:39:07;2.13;;;1.03;;
3975;SDS011;2002;48.812;9.180;2022-07-05T11:41:41;1.20;;;1.10;;
3975;SDS011;2002;48.812;9.180;2022-07-05T11:44:08;1.30;;;1.20;;
3975;SDS011;2002;48.812;9.180;2022-07-05T11:46:33;1.90;;;1.70;;
3975;SDS011;2002;48.812;9.180;2022-07-05T11:48:59;1.40;;;1.30;;
3975;SDS011;2002;48.812;9.180;2022-07-05T11:51:25;1.50;;;1.40;;
3975;SDS011;2002;48.812;9.180;2022-07-05T11:53:51;1.53;;;1.43;;
3975;SDS011;2002;48.812;9.180;2022-07-05T11:56:16;1.50;;;1.40;;
3975;SDS011;2002;48.812;9.180;2022-07-05T11:58:42;1.57;;;1.47;;
3975;SDS011;2002;48.812;9.180;2022-07-05T12:01:08;1.60;;;1.40;;
3975;SDS011;2002;48.812;9.180;2022-07-05T12:03:33;1.53;;;1.40;;
3975;SDS011;2002;48.812;9.180;2022-07-05T12:06:09;1.73;;;1.63;;
3975;SDS011;2002;48.812;9.180;2022-07-05T12:08:35;1.40;;;1.30;;
3975;SDS011;2002;48.812;9.180;2022-07-05T12:11:01;1.50;;;1.40;;
3975;SDS011;2002;48.812;9.180;2022-07-05T12:13:47;1.70;;;1.60;;
3975;SDS011;2002;48.812;9.180;2022-07-05T12:16:14;1.70;;;1.53;;
3975;SDS011;2002;48.812;9.180;2022-07-05T12:18:50;1.70;;;1.60;;
3975;SDS011;2002;48.812;9.180;2022-07-05T12:21:17;2.90;;;1.97;;
3975;SDS011;2002;48.812;9.180;2022-07-05T12:23:45;1.30;;;1.20;;
3975;SDS011;2002;48.812;9.180;2022-07-05T12:26:12;1.53;;;1.43;;
3975;SDS011;2002;48.812;9.180;2022-07-05T12:28:38;0.97;;;0.97;;
3975;SDS011;2002;48.812;9.180;2022-07-05T12:31:15;2.00;;;1.30;;
3975;SDS011;2002;48.812;9.180;2022-07-05T12:33:40;1.40;;;1.30;;
3975;SDS011;2002;48.812;9.180;2022-07-05T12:36:10;1.40;;;1.30;;
3975;SDS011;2002;48.812;9.180;2022-07-05T12:38:37;1.43;;;1.20;;
3975;SDS011;2002;48.812;9.180;2022-07-05T12:41:02;1.50;;;1.40;;
3975;SDS011;2002;48.812;9.180;2022-07-05T12:43:28;1.30;;;1.20;;
3975;SDS011;2002;48.812;9.180;2022-07-05T12:46:06;1.50;;;1.40;;
3975;SDS011;2002;48.812;9.180;2022-07-05T12:48:33;1.40;;;1.30;;
3975;SDS011;2002;48.812;9.180;2022-07-05T12:51:03;1.93;;;1.60;;
3975;SDS011;2002;48.812;9.180;2022-07-05T12:53:29;1.53;;;1.40;;
3975;SDS011;2002;48.812;9.180;2022-07-05T12:56:13;1.57;;;1.47;;
3975;SDS011;2002;48.812;9.180;2022-07-05T12:58:59;2.30;;;1.43;;
3975;SDS011;2002;48.812;9.180;2022-07-05T13:01:30;1.70;;;1.30;;
3975;SDS011;2002;48.812;9.180;2022-07-05T13:04:05;1.40;;;1.30;;
3975;SDS011;2002;48.812;9.180;2022-07-05T13:06:51;2.03;;;1.83;;
3975;SDS011;2002;48.812;9.180;2022-07-05T13:12:04;1.50;;;1.40;;
3975;SDS011;2002;48.812;9.180;2022-07-05T13:14:30;1.30;;;1.20;;
3975;SDS011;2002;48.812;9.180;2022-07-05T13:16:56;1.77;;;1.40;;
3975;SDS011;2002;48.812;9.180;2022-07-05T13:19:21;1.50;;;1.40;;
3975;SDS011;2002;48.812;9.180;2022-07-05T13:21:47;2.67;;;2.50;;
3975;SDS011;2002;48.812;9.180;2022-07-05T13:24:12;6.07;;;1.60;;
3975;SDS011;2002;48.812;9.180;2022-07-05T13:26:38;1.50;;;1.40;;
3975;SDS011;2002;48.812;9.180;2022-07-05T13:29:03;2.43;;;1.53;;
3975;SDS011;2002;48.812;9.180;2022-07-05T13:31:29;1.20;;;1.10;;
3975;SDS011;2002;48.812;9.180;2022-07-05T13:33:55;1.53;;;1.43;;
3975;SDS011;2002;48.812;9.180;2022-07-05T13:36:22;1.67;;;1.57;;
3975;SDS011;2002;48.812;9.180;2022-07-05T13:38:47;1.90;;;1.60;;
3975;SDS011;2002;48.812;9.180;2022-07-05T13:41:13;3.77;;;1.33;;
3975;SDS011;2002;48.812;9.180;2022-07-05T13:43:39;1.40;;;1.20;;
3975;SDS011;2002;48.812;9.180;2022-07-05T13:46:04;2.10;;;1.53;;
3975;SDS011;2002;48.812;9.180;2022-07-05T13:48:31;1.47;;;1.37;;
3975;SDS011;2002;48.812;9.180;2022-07-05T13:50:56;1.57;;;1.47;;
3975;SDS011;2002;48.812;9.180;2022-07-05T13:53:22;1.70;;;1.60;;
3975;SDS011;2002;48.812;9.180;2022-07-05T13:55:47;1.40;;;1.30;;
3975;SDS011;2002;48.812;9.180;2022-07-05T13:58:13;1.57;;;1.47;;
3975;SDS011;2002;48.812;9.180;2022-07-05T14:00:38;2.17;;;1.63;;
3975;SDS011;2002;48.812;9.180;2022-07-05T14:03:04;1.43;;;1.33;;
3975;SDS011;2002;48.812;9.180;2022-07-05T14:05:30;1.50;;;1.40;;
3975;SDS011;2002;48.812;9.180;2022-07-05T14:07:55;1.60;;;1.50;;
3975;SDS011;2002;48.812;9.180;2022-07-05T14:10:21;1.60;;;1.50;;
3975;SDS011;2002;48.812;9.180;2022-07-05T14:12:46;1.50;;;1.40;;
3975;SDS011;2002;48.812;9.180;2022-07-05T14:15:12;1.47;;;1.30;;
3975;SDS011;2002;48.812;9.180;2022-07-05T14:17:37;1.50;;;1.40;;
3975;SDS011;2002;48.812;9.180;2022-07-05T14:20:04;1.40;;;1.30;;
3975;SDS011;2002;48.812;9.180;2022-07-05T14:22:30;2.23;;;1.60;;
3975;SDS011;2002;48.812;9.180;2022-07-05T14:24:55;1.40;;;1.30;;
3975;SDS011;2002;48.812;9.180;2022-07-05T14:27:21;1.40;;;1.30;;
3975;SDS011;2002;48.812;9.180;2022-07-05T14:29:46;2.53;;;1.73;;
3975;SDS011;2002;48.812;9.180;2022-07-05T14:32:12;1.47;;;1.37;;
3975;SDS011;2002;48.812;9.180;2022-07-05T14:34:37;1.50;;;1.40;;
3975;SDS011;2002;48.812;9.180;2022-07-05T14:37:03;1.57;;;1.47;;
3975;SDS011;2002;48.812;9.180;2022-07-05T14:39:29;1.77;;;1.67;;
3975;SDS011;2002;48.812;9.180;2022-07-05T14:41:54;1.30;;;1.20;;
3975;SDS011;2002;48.812;9.180;2022-07-05T14:44:20;1.50;;;1.40;;
3975;SDS011;2002;48.812;9.180;2022-07-05T14:46:46;1.33;;;1.23;;
3975;SDS011;2002;48.812;9.180;2022-07-05T14:49:11;1.67;;;1.57;;
3975;SDS011;2002;48.812;9.180;2022-07-05T14:51:37;1.80;;;1.50;;
3975;SDS011;2002;48.812;9.180;2022-07-05T14:54:03;1.60;;;1.50;;
3975;SDS011;2002;48.812;9.180;2022-07-05T14:56:28;1.80;;;1.70;;
3975;SDS011;2002;48.812;9.180;2022-07-05T14:58:54;3.20;;;2.00;;
3975;SDS011;2002;48.812;9.180;2022-07-05T15:01:20;2.30;;;2.10;;
3975;SDS011;2002;48.812;9.180;2022-07-05T15:03:46;2.70;;;1.60;;
3975;SDS011;2002;48.812;9.180;2022-07-05T15:06:11;2.40;;;1.70;;
3975;SDS011;2002;48.812;9.180;2022-07-05T15:08:37;1.57;;;1.47;;
3975;SDS011;2002;48.812;9.180;2022-07-05T15:11:03;4.40;;;1.97;;
3975;SDS011;2002;48.812;9.180;2022-07-05T15:13:29;1.53;;;1.43;;
3975;SDS011;2002;48.812;9.180;2022-07-05T15:15:55;3.00;;;1.70;;
3975;SDS011;2002;48.812;9.180;2022-07-05T15:18:22;1.67;;;1.57;;
3975;SDS011;2002;48.812;9.180;2022-07-05T15:20:48;2.33;;;1.60;;
3975;SDS011;2002;48.812;9.180;2022-07-05T15:23:13;1.87;;;1.77;;
3975;SDS011;2002;48.812;9.180;2022-07-05T15:25:39;1.97;;;1.60;;
3975;SDS011;2002;48.812;9.180;2022-07-05T15:28:05;2.33;;;2.13;;
3975;SDS011;2002;48.812;9.180;2022-07-05T15:30:34;1.83;;;1.53;;
3975;SDS011;2002;48.812;9.180;2022-07-05T15:33:01;1.87;;;1.77;;
3975;SDS011;2002;48.812;9.180;2022-07-05T15:35:27;1.87;;;1.40;;